CMA CGM Turquoise — A8RB5 — position and weather

sailwx.info

Track history (hours):
 
Tides and Currents Weather Stations Pressure Air Temp Water Temp Dewpoint Dewpoint Depression Visibility Wind Speed Wind Dir Waves Ship Positions

CMA CGM Turquoise

Last reported at 2016-Jan-20 13:04 UTC. Time now 2016-Feb-13 21:27 UTC.
Position S 33°25' E 028°27'.
Warning: this ship's position is 24 days out of date.

Length 258 m; draft 8 m.

Type: Ship. MMSI: 636014059.

Date/timePositionNaut miles runAvg speedWind from/ knotsBaromVisibWave heightAir tempDewpointWater temp
2016-Jan-20 13:04S 33°25' E 028°27'8214.6
2016-Jan-20 07:27S 33°60' E 026°57'1112.0
2016-Jan-20 06:33S 34°04' E 026°45'32714.9
2016-Jan-19 08:32S 35°11' E 020°16'11514.3
2016-Jan-19 00:29S 34°21' E 018°10'1414.2
2016-Jan-18 23:31S 34°08' E 018°04'1414.3
2016-Jan-18 22:33S 33°55' E 017°58'1515.1
2016-Jan-18 21:33S 33°41' E 017°51'1615.5
2016-Jan-18 20:31S 33°27' E 017°43'7314.8
2016-Jan-18 15:34S 32°19' E 017°10'1814.9
2016-Jan-18 14:21S 32°02' E 017°01'1214.8
2016-Jan-18 13:33S 31°51' E 016°56'1414.6
2016-Jan-18 12:33S 31°38' E 016°50'  
Track history (hours):
 
Tides and Currents Weather Stations Pressure Air Temp Water Temp Dewpoint Dewpoint Depression Visibility Wind Speed Wind Dir Waves Ship Positions

CMA CGM Turquoise

Last reported at 2016-Jan-20 13:04 UTC. Time now 2016-Feb-13 21:27 UTC.
Position S 33°25' E 028°27'.
Warning: this ship's position is 24 days out of date.

Length 258 m; draft 8 m.

Type: Ship. MMSI: 636014059.

Date/timePositionNaut miles runAvg speedWind from/ knotsBaromVisibWave heightAir tempDewpointWater temp
2016-Jan-20 13:04S 33°25' E 028°27'8214.6
2016-Jan-20 07:27S 33°60' E 026°57'1112.0
2016-Jan-20 06:33S 34°04' E 026°45'32714.9
2016-Jan-19 08:32S 35°11' E 020°16'11514.3
2016-Jan-19 00:29S 34°21' E 018°10'1414.2
2016-Jan-18 23:31S 34°08' E 018°04'1414.3
2016-Jan-18 22:33S 33°55' E 017°58'1515.1
2016-Jan-18 21:33S 33°41' E 017°51'1615.5
2016-Jan-18 20:31S 33°27' E 017°43'7314.8
2016-Jan-18 15:34S 32°19' E 017°10'1814.9
2016-Jan-18 14:21S 32°02' E 017°01'1214.8
2016-Jan-18 13:33S 31°51' E 016°56'1414.6
2016-Jan-18 12:33S 31°38' E 016°50'  

Dump ship's entire track history